Time;durP1;ratioP1;P1;durP2;ratioP2;P2;SDS_P1;SDS_P2;PMS_P1;PMS_P2;Temp;Humidity;BMP_temperature;BMP_pressure;BME280_temperature;BME280_humidity;BME280_pressure;Samples;Min_cycle;Max_cycle;Signal;HPM_P1;HPM_P2
2021/06/07 00:00:16;;;;;;;1.90;1.15;;;14.40;75.30;;;;;;2078557;28;20141;-83
2021/06/07 00:01:18;;;;;;;1.52;0.85;;;14.40;75.40;;;;;;2073850;28;20048;-83
2021/06/07 00:02:19;;;;;;;2.22;1.08;;;14.40;75.40;;;;;;2080252;28;20026;-83
2021/06/07 00:03:20;;;;;;;1.98;1.00;;;14.40;75.40;;;;;;2082147;28;20006;-84
2021/06/07 00:04:22;;;;;;;2.05;1.02;;;14.30;75.40;;;;;;2082335;28;20022;-84
2021/06/07 00:05:23;;;;;;;1.98;1.00;;;14.30;75.50;;;;;;2075203;28;20030;-83
2021/06/07 00:06:24;;;;;;;1.58;0.93;;;14.30;75.60;;;;;;2074606;28;20010;-83
2021/06/07 00:07:24;;;;;;;1.45;1.00;;;14.30;76.30;;;;;;2071192;28;20014;-84
2021/06/07 00:08:25;;;;;;;2.20;1.02;;;14.20;75.70;;;;;;2064811;28;20488;-84
2021/06/07 00:09:28;;;;;;;2.97;1.15;;;14.20;75.70;;;;;;2072260;28;20034;-83
2021/06/07 00:10:28;;;;;;;2.13;1.10;;;14.20;75.70;;;;;;2074900;28;20036;-83
2021/06/07 00:11:29;;;;;;;2.80;1.48;;;14.20;75.80;;;;;;2065716;28;20045;-84
2021/06/07 00:12:30;;;;;;;1.50;1.00;;;14.20;75.80;;;;;;2073533;28;20030;-83
2021/06/07 00:13:31;;;;;;;2.67;1.30;;;14.20;75.80;;;;;;2076052;28;20025;-83
2021/06/07 00:14:34;;;;;;;2.63;1.35;;;14.20;75.80;;;;;;2070101;28;20062;-83
2021/06/07 00:15:35;;;;;;;1.83;0.98;;;14.20;75.90;;;;;;2062588;28;20031;-83
2021/06/07 00:16:36;;;;;;;2.45;0.95;;;14.20;75.90;;;;;;2071671;28;20577;-83
2021/06/07 00:17:38;;;;;;;2.45;1.05;;;14.20;75.90;;;;;;2066043;28;20069;-83
2021/06/07 00:18:39;;;;;;;2.10;1.02;;;14.20;75.90;;;;;;2075348;28;20049;-83
2021/06/07 00:19:40;;;;;;;1.10;0.90;;;14.20;75.80;;;;;;2074213;28;20038;-83
2021/06/07 00:20:45;;;;;;;1.65;0.93;;;14.20;75.80;;;;;;2076387;28;20030;-83
2021/06/07 00:21:47;;;;;;;1.75;1.00;;;14.20;75.90;;;;;;2077087;28;20395;-83
2021/06/07 00:22:48;;;;;;;1.77;1.25;;;14.20;75.90;;;;;;2075819;28;20034;-84
2021/06/07 00:23:49;;;;;;;1.63;1.02;;;14.20;75.90;;;;;;2080392;28;20020;-84
2021/06/07 00:24:50;;;;;;;1.48;1.00;;;14.10;75.90;;;;;;2082245;28;20034;-83
2021/06/07 00:25:53;;;;;;;1.85;1.10;;;14.10;76.00;;;;;;2081995;28;20010;-84
2021/06/07 00:26:53;;;;;;;1.48;0.93;;;14.10;76.00;;;;;;2082571;28;20095;-83
2021/06/07 00:27:54;;;;;;;2.00;1.10;;;14.10;76.70;;;;;;2076392;28;20034;-84
2021/06/07 00:28:56;;;;;;;1.60;1.00;;;14.10;76.10;;;;;;2079614;28;20561;-83
2021/06/07 00:29:56;;;;;;;1.60;1.00;;;14.10;76.10;;;;;;2079078;28;20051;-84
2021/06/07 00:30:57;;;;;;;2.38;1.15;;;14.10;76.70;;;;;;2063545;28;20436;-84
2021/06/07 00:31:58;;;;;;;2.03;0.98;;;14.10;76.10;;;;;;2064228;28;20019;-83
2021/06/07 00:32:58;;;;;;;1.42;0.90;;;14.10;76.10;;;;;;2062245;28;20390;-84
2021/06/07 00:33:59;;;;;;;1.42;1.00;;;14.10;76.10;;;;;;2063678;28;20506;-83
2021/06/07 00:35:00;;;;;;;1.35;1.00;;;14.10;76.20;;;;;;2061843;28;20023;-84
2021/06/07 00:36:03;;;;;;;2.05;1.00;;;14.00;76.20;;;;;;2070817;28;20031;-83
2021/06/07 00:37:04;;;;;;;1.73;1.00;;;14.00;76.30;;;;;;2068997;28;20029;-83
2021/06/07 00:38:04;;;;;;;2.80;1.10;;;14.00;76.30;;;;;;2065201;28;20053;-83
2021/06/07 00:39:09;;;;;;;2.53;1.10;;;13.90;76.30;;;;;;2085109;28;20038;-83
2021/06/07 00:40:10;;;;;;;2.58;1.17;;;13.90;76.40;;;;;;2082077;28;20017;-83
2021/06/07 00:41:12;;;;;;;2.65;1.15;;;13.90;76.50;;;;;;2071858;28;20069;-83
2021/06/07 00:42:13;;;;;;;1.65;1.02;;;13.90;76.60;;;;;;2067389;28;20504;-83
2021/06/07 00:43:14;;;;;;;2.10;1.08;;;13.90;76.60;;;;;;2079764;28;20129;-83
2021/06/07 00:44:19;;;;;;;2.85;1.17;;;13.90;76.60;;;;;;2078255;28;20128;-83
2021/06/07 00:45:26;;;;;;;3.85;1.10;;;13.90;76.60;;;;;;2075425;28;20112;-83
2021/06/07 00:46:28;;;;;;;1.90;1.02;;;13.90;76.60;;;;;;2075262;28;20032;-83
2021/06/07 00:47:30;;;;;;;2.30;1.00;;;13.90;76.50;;;;;;2067234;28;20038;-82
2021/06/07 00:48:31;;;;;;;1.75;1.05;;;13.90;76.50;;;;;;2072995;28;20029;-83
2021/06/07 00:49:32;;;;;;;2.65;1.10;;;13.90;76.40;;;;;;2071479;28;20483;-83
2021/06/07 00:50:39;;;;;;;1.98;1.10;;;13.90;76.40;;;;;;2080225;28;20033;-83
2021/06/07 00:51:41;;;;;;;1.27;1.00;;;13.90;76.40;;;;;;2079704;28;20022;-83
2021/06/07 00:53:01;;;;;;;2.67;1.13;;;13.90;76.40;;;;;;2080941;28;20025;-83
2021/06/07 00:54:02;;;;;;;3.20;1.10;;;13.90;76.40;;;;;;2081389;28;20057;-83
2021/06/07 00:55:04;;;;;;;2.20;0.95;;;13.80;76.40;;;;;;2073063;28;20022;-83
2021/06/07 00:56:09;;;;;;;2.65;1.10;;;13.80;76.40;;;;;;2077603;28;20393;-82
2021/06/07 00:57:09;;;;;;;2.00;1.02;;;13.80;76.50;;;;;;2078185;28;20147;-83
2021/06/07 00:58:10;;;;;;;3.00;1.23;;;13.80;76.60;;;;;;2073022;28;20450;-83
2021/06/07 00:59:14;;;;;;;2.00;1.10;;;13.80;76.60;;;;;;2056714;28;20039;-83
2021/06/07 01:00:15;;;;;;;2.28;1.20;;;13.80;77.20;;;;;;2064350;28;20069;-83
2021/06/07 01:01:18;;;;;;;1.48;1.00;;;13.80;76.50;;;;;;2079522;28;20529;-83
2021/06/07 01:02:19;;;;;;;2.42;1.23;;;13.80;76.50;;;;;;2081893;28;20049;-83
2021/06/07 01:03:21;;;;;;;2.22;0.95;;;13.80;76.40;;;;;;2080451;28;20040;-83
2021/06/07 01:04:22;;;;;;;2.35;1.20;;;13.80;76.40;;;;;;2072476;28;20022;-83
2021/06/07 01:05:24;;;;;;;1.70;0.90;;;13.80;76.30;;;;;;2079527;28;20028;-83
2021/06/07 01:06:26;;;;;;;2.75;1.00;;;13.80;76.30;;;;;;2075264;28;20068;-82
2021/06/07 01:07:27;;;;;;;3.05;0.90;;;13.80;76.30;;;;;;2072857;28;20466;-83
2021/06/07 01:08:28;;;;;;;2.13;1.17;;;13.80;76.20;;;;;;2059506;28;20125;-83
2021/06/07 01:09:29;;;;;;;2.15;0.98;;;13.80;76.20;;;;;;2072170;28;20031;-83
2021/06/07 01:10:30;;;;;;;1.50;0.90;;;13.80;76.20;;;;;;2067725;28;20477;-83
2021/06/07 01:11:32;;;;;;;1.98;1.10;;;13.80;76.20;;;;;;2061456;28;20035;-83
2021/06/07 01:12:33;;;;;;;1.55;0.90;;;13.80;76.20;;;;;;2073302;28;20411;-82
2021/06/07 01:13:35;;;;;;;1.48;0.90;;;13.80;76.20;;;;;;2076622;28;20045;-83
2021/06/07 01:14:35;;;;;;;2.60;1.17;;;13.80;76.30;;;;;;2077449;28;20121;-83
2021/06/07 01:15:36;;;;;;;2.30;1.08;;;13.80;76.40;;;;;;2064169;28;20500;-82
2021/06/07 01:16:37;;;;;;;1.73;1.00;;;13.70;76.40;;;;;;2056916;28;20114;-83
2021/06/07 01:17:38;;;;;;;1.42;0.95;;;13.70;76.40;;;;;;2065412;28;20029;-82
2021/06/07 01:18:39;;;;;;;1.73;1.00;;;13.70;76.50;;;;;;2072360;28;20033;-83
2021/06/07 01:19:40;;;;;;;3.17;1.10;;;13.70;76.50;;;;;;2072910;28;20053;-83
2021/06/07 01:20:41;;;;;;;2.10;1.02;;;13.70;76.40;;;;;;2073839;28;20049;-83
2021/06/07 01:21:42;;;;;;;1.90;1.02;;;13.70;76.40;;;;;;2078523;28;20022;-83
2021/06/07 01:22:45;;;;;;;1.25;0.98;;;13.70;76.40;;;;;;2066075;28;20048;-83
2021/06/07 01:23:47;;;;;;;1.60;0.80;;;13.70;76.40;;;;;;2069091;28;20166;-83
2021/06/07 01:24:48;;;;;;;1.77;0.95;;;13.70;76.40;;;;;;2068764;28;20503;-82
2021/06/07 01:25:49;;;;;;;2.78;1.20;;;13.70;76.40;;;;;;2074869;28;20041;-83
2021/06/07 01:26:49;;;;;;;2.17;1.05;;;13.70;76.40;;;;;;2074454;28;20064;-83
2021/06/07 01:27:52;;;;;;;1.77;0.90;;;13.60;76.30;;;;;;2077854;28;20424;-83
2021/06/07 01:28:54;;;;;;;1.80;0.93;;;13.60;76.40;;;;;;2067682;28;20165;-83
2021/06/07 01:29:55;;;;;;;1.80;1.00;;;13.60;76.40;;;;;;2077454;28;20033;-83
2021/06/07 01:30:56;;;;;;;2.05;1.00;;;13.60;76.50;;;;;;2070222;28;20064;-83
2021/06/07 01:31:57;;;;;;;3.65;1.02;;;13.60;76.50;;;;;;2067359;28;20030;-83
2021/06/07 01:32:59;;;;;;;2.97;0.98;;;13.60;76.60;;;;;;2085107;28;20419;-83
2021/06/07 01:34:00;;;;;;;2.03;1.10;;;13.50;76.60;;;;;;2084619;28;20029;-83
2021/06/07 01:35:01;;;;;;;1.77;1.10;;;13.50;76.60;;;;;;2076765;28;20034;-83
2021/06/07 01:36:04;;;;;;;1.65;0.90;;;13.50;76.60;;;;;;2067511;28;20060;-83
2021/06/07 01:37:05;;;;;;;1.70;0.95;;;13.50;76.70;;;;;;2075734;28;20116;-83
2021/06/07 01:38:07;;;;;;;2.35;1.08;;;13.40;76.60;;;;;;2076667;28;20092;-83
2021/06/07 01:39:07;;;;;;;2.83;1.20;;;13.50;76.80;;;;;;2074576;28;20033;-83
2021/06/07 01:40:12;;;;;;;3.28;1.20;;;13.40;76.70;;;;;;2076646;28;20467;-84
2021/06/07 01:41:16;;;;;;;2.63;0.90;;;13.40;76.80;;;;;;2077939;28;20083;-83
2021/06/07 01:42:17;;;;;;;1.20;0.80;;;13.30;76.80;;;;;;2084718;28;20487;-83
2021/06/07 01:43:18;;;;;;;1.70;1.02;;;13.30;76.80;;;;;;2075514;28;20034;-83
2021/06/07 01:44:19;;;;;;;2.25;0.90;;;13.30;77.40;;;;;;2076491;28;20029;-84
2021/06/07 01:45:23;;;;;;;2.08;1.20;;;13.30;76.80;;;;;;2076655;28;20026;-83
2021/06/07 01:46:23;;;;;;;1.33;0.80;;;13.30;76.80;;;;;;2074101;28;20105;-83
2021/06/07 01:47:24;;;;;;;2.47;1.00;;;13.30;76.80;;;;;;2069802;28;20609;-83
2021/06/07 01:48:26;;;;;;;1.90;1.00;;;13.30;76.80;;;;;;2069905;28;20495;-83
2021/06/07 01:49:26;;;;;;;2.15;1.15;;;13.30;76.80;;;;;;2077307;28;20052;-83
2021/06/07 01:50:28;;;;;;;1.70;0.98;;;13.30;76.70;;;;;;2078025;28;20522;-83
2021/06/07 01:51:28;;;;;;;1.27;0.68;;;13.30;76.70;;;;;;2072056;28;20447;-83
2021/06/07 01:52:29;;;;;;;2.17;0.90;;;13.30;76.80;;;;;;2060780;28;20059;-83
2021/06/07 01:53:30;;;;;;;1.10;0.70;;;13.30;76.70;;;;;;2068099;28;20022;-83
2021/06/07 01:54:31;;;;;;;1.38;0.77;;;13.30;76.70;;;;;;2073469;28;20048;-83
2021/06/07 01:55:43;;;;;;;1.98;0.90;;;13.30;76.60;;;;;;2073738;28;20036;-83
2021/06/07 01:56:43;;;;;;;1.05;0.80;;;13.30;76.50;;;;;;2078759;28;20070;-83
2021/06/07 01:57:46;;;;;;;0.90;0.60;;;13.30;76.40;;;;;;2078303;28;20542;-83
2021/06/07 01:58:47;;;;;;;2.05;0.90;;;13.30;76.30;;;;;;2072203;28;20504;-83
2021/06/07 01:59:47;;;;;;;1.73;0.85;;;13.30;76.20;;;;;;2072022;28;20082;-83
2021/06/07 02:00:53;;;;;;;1.88;0.90;;;13.30;76.20;;;;;;2068476;28;20129;-83
2021/06/07 02:01:54;;;;;;;2.45;0.90;;;13.30;76.10;;;;;;2073232;28;20029;-83
2021/06/07 02:02:55;;;;;;;2.22;0.90;;;13.30;76.00;;;;;;2061651;28;20075;-83
2021/06/07 02:03:56;;;;;;;1.00;0.60;;;13.30;75.90;;;;;;2069985;28;20122;-83
2021/06/07 02:04:56;;;;;;;1.25;0.85;;;13.30;75.80;;;;;;2072260;28;20049;-83
2021/06/07 02:05:59;;;;;;;1.85;0.82;;;13.30;75.70;;;;;;2071697;28;20037;-83
2021/06/07 02:07:00;;;;;;;1.17;0.80;;;13.30;75.70;;;;;;2076959;28;20025;-83
2021/06/07 02:08:06;;;;;;;1.10;0.60;;;13.30;75.60;;;;;;2072379;28;20080;-83
2021/06/07 02:09:06;;;;;;;1.63;0.70;;;13.30;75.60;;;;;;2066010;28;20500;-83
2021/06/07 02:10:08;;;;;;;2.03;0.70;;;13.30;75.60;;;;;;2073082;28;20025;-83
2021/06/07 02:11:24;;;;;;;1.20;0.63;;;13.30;75.50;;;;;;2074781;28;20045;-83
2021/06/07 02:12:25;;;;;;;1.48;1.00;;;13.30;75.40;;;;;;2075859;28;20053;-84
2021/06/07 02:13:26;;;;;;;2.45;0.90;;;13.30;75.30;;;;;;2074907;28;20435;-83
2021/06/07 02:14:26;;;;;;;2.35;0.68;;;13.30;75.90;;;;;;2072328;28;20022;-83
2021/06/07 02:15:27;;;;;;;1.20;0.70;;;13.30;75.30;;;;;;2056620;28;20067;-83
2021/06/07 02:16:30;;;;;;;1.58;0.80;;;13.30;75.30;;;;;;2072022;28;20026;-83
2021/06/07 02:17:31;;;;;;;1.10;0.50;;;13.20;75.30;;;;;;2078108;28;20391;-83
2021/06/07 02:18:35;;;;;;;1.65;0.68;;;13.30;75.40;;;;;;2068469;28;20030;-84
2021/06/07 02:19:35;;;;;;;5.57;0.80;;;13.20;75.40;;;;;;2074255;28;20556;-83
2021/06/07 02:20:38;;;;;;;1.08;0.63;;;13.20;75.40;;;;;;2079084;28;20041;-83
2021/06/07 02:21:40;;;;;;;0.80;0.60;;;13.20;75.40;;;;;;2080754;28;20017;-84
2021/06/07 02:22:42;;;;;;;2.33;0.90;;;13.20;75.40;;;;;;2077473;28;20649;-83
2021/06/07 02:23:44;;;;;;;1.52;0.70;;;13.20;75.40;;;;;;2075993;28;20072;-84
2021/06/07 02:24:44;;;;;;;1.35;0.70;;;13.20;75.40;;;;;;2072472;28;20447;-83
2021/06/07 02:25:46;;;;;;;1.85;0.90;;;13.20;75.50;;;;;;2064156;28;20030;-83
2021/06/07 02:26:46;;;;;;;1.98;0.80;;;13.20;75.60;;;;;;2069248;28;20030;-83
2021/06/07 02:27:47;;;;;;;1.67;0.90;;;13.20;75.60;;;;;;2084255;28;20415;-84
2021/06/07 02:28:57;;;;;;;1.50;0.80;;;13.10;75.60;;;;;;2085876;28;20041;-84
2021/06/07 02:29:58;;;;;;;1.65;0.75;;;13.10;75.60;;;;;;2080789;28;20017;-84
2021/06/07 02:31:00;;;;;;;1.13;0.70;;;13.10;75.60;;;;;;2079902;28;20399;-84
2021/06/07 02:32:00;;;;;;;1.35;0.80;;;13.10;75.60;;;;;;2075879;28;20040;-83
2021/06/07 02:33:02;;;;;;;0.60;0.60;;;13.10;76.20;;;;;;2072125;28;20802;-83
2021/06/07 02:34:05;;;;;;;1.27;0.77;;;13.20;75.60;;;;;;2078046;28;20048;-83
2021/06/07 02:35:09;;;;;;;1.33;0.52;;;13.10;75.60;;;;;;2074865;28;20393;-84
2021/06/07 02:36:10;;;;;;;2.67;0.80;;;13.10;75.60;;;;;;2072642;28;20026;-83
2021/06/07 02:37:11;;;;;;;0.98;0.70;;;13.10;75.60;;;;;;2072080;28;20041;-84
2021/06/07 02:38:12;;;;;;;1.77;0.80;;;13.10;75.60;;;;;;2079567;28;20120;-83
2021/06/07 02:39:15;;;;;;;1.35;0.60;;;13.10;75.70;;;;;;2074923;28;20481;-84
2021/06/07 02:40:19;;;;;;;1.75;0.88;;;13.10;75.70;;;;;;2072577;28;20037;-84
2021/06/07 02:41:21;;;;;;;1.02;0.68;;;13.10;75.80;;;;;;2078551;28;20039;-83
2021/06/07 02:42:21;;;;;;;1.80;1.00;;;13.10;75.80;;;;;;2071435;28;20073;-84
2021/06/07 02:43:22;;;;;;;2.65;0.90;;;13.00;75.70;;;;;;2058605;28;20084;-84
2021/06/07 02:44:23;;;;;;;2.08;0.90;;;13.10;75.80;;;;;;2063449;28;20034;-83
2021/06/07 02:45:25;;;;;;;2.20;0.90;;;13.00;75.80;;;;;;2072213;28;20041;-84
2021/06/07 02:46:26;;;;;;;1.75;0.70;;;13.00;75.90;;;;;;2073235;28;20085;-83
2021/06/07 02:47:26;;;;;;;1.35;0.80;;;13.00;76.00;;;;;;2075317;28;20045;-84
2021/06/07 02:48:27;;;;;;;2.25;0.90;;;13.00;76.00;;;;;;2062521;28;20440;-83
2021/06/07 02:49:28;;;;;;;1.20;0.80;;;12.90;76.00;;;;;;2063280;28;20519;-83
2021/06/07 02:50:32;;;;;;;1.55;0.90;;;13.00;76.10;;;;;;2076620;28;20057;-83
2021/06/07 02:51:32;;;;;;;2.15;0.90;;;12.90;76.10;;;;;;2069112;28;20092;-83
2021/06/07 02:52:33;;;;;;;1.35;0.80;;;12.90;76.10;;;;;;2069045;28;20176;-84
2021/06/07 02:53:34;;;;;;;2.85;0.90;;;12.90;76.10;;;;;;2068387;28;20161;-83
2021/06/07 02:54:35;;;;;;;1.85;0.80;;;12.90;76.10;;;;;;2074132;28;20504;-83
2021/06/07 02:55:38;;;;;;;1.50;0.95;;;12.90;76.10;;;;;;2078063;28;20026;-83
2021/06/07 02:56:39;;;;;;;1.02;0.80;;;13.00;76.20;;;;;;2086510;28;20029;-83
2021/06/07 02:57:40;;;;;;;1.17;0.77;;;13.00;76.10;;;;;;2072044;28;20068;-83
2021/06/07 02:58:40;;;;;;;2.00;1.10;;;13.00;76.10;;;;;;2072176;28;20026;-84
2021/06/07 02:59:41;;;;;;;1.33;0.80;;;13.00;76.10;;;;;;2079146;28;20499;-83
2021/06/07 03:00:51;;;;;;;1.10;0.80;;;12.90;76.10;;;;;;2079525;28;20026;-83
2021/06/07 03:01:52;;;;;;;1.08;0.75;;;12.90;76.20;;;;;;2076172;28;20026;-83
2021/06/07 03:02:57;;;;;;;1.90;0.82;;;12.90;76.20;;;;;;2076747;28;20018;-83
2021/06/07 03:03:58;;;;;;;1.02;0.80;;;12.90;76.20;;;;;;2082741;28;20057;-83
2021/06/07 03:04:58;;;;;;;1.70;1.10;;;12.90;76.30;;;;;;2076220;28;20033;-83
2021/06/07 03:05:59;;;;;;;1.98;0.95;;;12.90;76.30;;;;;;2074812;28;20037;-83
2021/06/07 03:07:00;;;;;;;1.40;0.93;;;12.90;76.30;;;;;;2063969;28;20026;-83
2021/06/07 03:08:01;;;;;;;2.17;0.90;;;12.90;76.30;;;;;;2065457;28;20038;-83
2021/06/07 03:09:03;;;;;;;2.78;0.73;;;12.90;76.30;;;;;;2071613;28;20126;-82
2021/06/07 03:10:06;;;;;;;1.15;0.80;;;12.90;76.30;;;;;;2083980;28;20176;-82
2021/06/07 03:11:09;;;;;;;1.58;0.90;;;12.90;76.20;;;;;;2079629;28;20029;-82
2021/06/07 03:12:10;;;;;;;1.83;0.93;;;13.00;76.30;;;;;;2079875;28;20025;-83
2021/06/07 03:13:11;;;;;;;1.85;0.77;;;13.00;76.30;;;;;;2076971;28;20030;-83
2021/06/07 03:14:11;;;;;;;1.98;0.90;;;12.90;76.20;;;;;;2075573;28;20026;-82
2021/06/07 03:15:13;;;;;;;1.70;0.90;;;13.00;76.30;;;;;;2075559;28;20129;-82
2021/06/07 03:16:14;;;;;;;2.00;0.90;;;13.00;76.30;;;;;;2060941;28;20033;-82
2021/06/07 03:17:15;;;;;;;1.67;0.90;;;13.00;76.20;;;;;;2065363;28;20022;-82
2021/06/07 03:18:16;;;;;;;1.50;0.90;;;13.10;76.20;;;;;;2075257;28;20029;-83
2021/06/07 03:19:16;;;;;;;1.38;0.80;;;13.00;76.10;;;;;;2068985;28;20089;-82
2021/06/07 03:20:19;;;;;;;1.13;0.60;;;13.00;76.10;;;;;;2068011;28;20079;-82
2021/06/07 03:21:20;;;;;;;1.33;0.90;;;13.00;76.10;;;;;;2069892;28;20057;-82
2021/06/07 03:22:22;;;;;;;1.55;0.90;;;13.00;76.10;;;;;;2068314;28;20448;-83
2021/06/07 03:23:29;;;;;;;1.75;0.70;;;13.10;76.10;;;;;;2075002;28;20412;-83
2021/06/07 03:24:30;;;;;;;1.25;0.80;;;13.10;76.10;;;;;;2075542;28;20018;-82
2021/06/07 03:25:31;;;;;;;2.00;1.00;;;13.00;76.00;;;;;;2063773;28;20034;-83
2021/06/07 03:26:32;;;;;;;1.55;0.90;;;13.00;76.00;;;;;;2071837;28;20508;-83
2021/06/07 03:27:34;;;;;;;1.92;0.93;;;13.00;76.10;;;;;;2069982;28;20097;-83
2021/06/07 03:28:36;;;;;;;2.05;0.90;;;13.00;76.10;;;;;;2069870;28;20041;-83
2021/06/07 03:29:37;;;;;;;1.00;0.80;;;13.10;76.20;;;;;;2076322;28;20485;-82
2021/06/07 03:30:38;;;;;;;1.95;0.80;;;13.00;76.10;;;;;;2078650;28;20088;-82
2021/06/07 03:31:39;;;;;;;1.77;0.80;;;13.00;76.20;;;;;;2078539;28;20030;-83
2021/06/07 03:32:39;;;;;;;2.63;0.90;;;13.00;76.30;;;;;;2076089;28;20389;-82
2021/06/07 03:33:40;;;;;;;2.22;0.90;;;13.00;76.30;;;;;;2073455;28;20064;-82
2021/06/07 03:34:42;;;;;;;1.52;0.90;;;13.00;76.70;;;;;;2075668;28;20022;-83
2021/06/07 03:35:45;;;;;;;1.77;0.90;;;13.00;76.40;;;;;;2064910;28;20036;-83
2021/06/07 03:36:45;;;;;;;1.65;0.90;;;13.00;76.40;;;;;;2070111;28;20037;-82
2021/06/07 03:37:46;;;;;;;2.55;1.00;;;13.00;76.40;;;;;;2054371;28;20073;-83
2021/06/07 03:38:47;;;;;;;2.13;0.80;;;13.00;76.50;;;;;;2063326;28;20034;-83
2021/06/07 03:39:48;;;;;;;2.65;1.00;;;13.00;76.50;;;;;;2071952;28;20026;-84
2021/06/07 03:40:55;;;;;;;1.45;0.77;;;13.00;76.50;;;;;;2074203;28;20069;-83
2021/06/07 03:41:56;;;;;;;1.73;0.80;;;13.00;76.60;;;;;;2080832;28;20032;-83
2021/06/07 03:42:57;;;;;;;1.35;0.88;;;13.00;76.70;;;;;;2072794;28;20030;-83
2021/06/07 03:43:58;;;;;;;1.55;0.80;;;12.90;76.60;;;;;;2077212;28;20077;-83
2021/06/07 03:44:58;;;;;;;2.10;0.90;;;12.90;76.60;;;;;;2077698;28;20065;-83
2021/06/07 03:46:00;;;;;;;0.90;0.60;;;12.90;76.70;;;;;;2077937;28;20021;-83
2021/06/07 03:47:01;;;;;;;1.27;0.80;;;12.90;76.70;;;;;;2078496;28;20510;-83
2021/06/07 03:48:03;;;;;;;1.85;0.80;;;12.90;76.70;;;;;;2077453;28;20084;-83
2021/06/07 03:49:04;;;;;;;1.23;1.00;;;12.90;76.70;;;;;;2071518;28;20117;-82
2021/06/07 03:50:09;;;;;;;1.38;1.00;;;12.90;76.70;;;;;;2055970;28;20666;-83
2021/06/07 03:51:10;;;;;;;1.67;0.80;;;12.90;76.70;;;;;;2069356;28;20034;-82
2021/06/07 03:52:10;;;;;;;1.20;1.00;;;12.90;76.70;;;;;;2074656;28;20022;-82
2021/06/07 03:53:12;;;;;;;1.67;1.10;;;12.90;76.70;;;;;;2071794;28;20029;-83
2021/06/07 03:54:12;;;;;;;1.75;1.10;;;12.90;77.30;;;;;;2063279;28;20117;-83
2021/06/07 03:55:17;;;;;;;2.10;1.08;;;12.90;76.60;;;;;;2067320;28;20038;-83
2021/06/07 03:56:17;;;;;;;1.55;1.00;;;12.90;76.60;;;;;;2083904;28;20013;-83
2021/06/07 03:57:18;;;;;;;1.63;0.93;;;12.90;76.60;;;;;;2075639;28;20042;-83
2021/06/07 03:58:19;;;;;;;1.00;0.80;;;12.90;76.60;;;;;;2067720;28;20027;-83
2021/06/07 03:59:19;;;;;;;1.30;0.75;;;12.90;76.60;;;;;;2068072;28;20033;-82
2021/06/07 04:00:24;;;;;;;2.05;0.88;;;13.00;76.60;;;;;;2071599;28;20132;-83
2021/06/07 04:01:24;;;;;;;1.85;0.82;;;13.00;76.50;;;;;;2073560;28;20021;-83
2021/06/07 04:02:25;;;;;;;1.73;1.00;;;13.00;76.50;;;;;;2071579;28;20022;-83
2021/06/07 04:03:26;;;;;;;1.83;0.90;;;13.00;76.50;;;;;;2076009;28;20025;-83
2021/06/07 04:04:26;;;;;;;2.33;0.95;;;13.00;76.50;;;;;;2084316;28;20025;-83
2021/06/07 04:05:27;;;;;;;1.55;0.90;;;13.00;76.40;;;;;;2066529;28;20045;-83
2021/06/07 04:06:28;;;;;;;1.73;0.90;;;13.10;76.40;;;;;;2061171;28;20113;-83
2021/06/07 04:07:28;;;;;;;3.50;1.30;;;13.10;76.40;;;;;;2063525;28;20034;-83
2021/06/07 04:08:30;;;;;;;2.25;1.10;;;13.10;76.30;;;;;;2072325;28;20493;-83
2021/06/07 04:09:31;;;;;;;1.73;1.00;;;13.10;76.20;;;;;;2063858;28;20041;-83
2021/06/07 04:10:31;;;;;;;2.15;1.10;;;13.20;76.20;;;;;;2079167;28;20082;-83
2021/06/07 04:11:32;;;;;;;1.85;0.90;;;13.20;76.10;;;;;;2086907;28;20022;-83
2021/06/07 04:12:33;;;;;;;1.45;0.85;;;13.30;76.00;;;;;;2082724;28;20018;-82
2021/06/07 04:13:33;;;;;;;1.92;1.08;;;13.30;75.80;;;;;;2081933;28;20049;-82
2021/06/07 04:14:34;;;;;;;1.33;0.90;;;13.30;75.70;;;;;;2082455;28;20048;-82
2021/06/07 04:15:35;;;;;;;1.73;0.80;;;13.30;75.60;;;;;;2081111;28;20033;-83
2021/06/07 04:16:35;;;;;;;1.63;0.88;;;13.40;75.50;;;;;;2081254;28;20092;-84
2021/06/07 04:17:37;;;;;;;1.42;0.80;;;13.40;75.40;;;;;;2072255;28;20081;-83
2021/06/07 04:18:37;;;;;;;1.70;1.00;;;13.50;75.40;;;;;;2078553;28;20064;-83
2021/06/07 04:19:38;;;;;;;1.95;0.93;;;13.50;75.20;;;;;;2077199;28;20053;-83
2021/06/07 04:20:39;;;;;;;2.60;0.88;;;13.50;75.20;;;;;;2083804;28;20061;-82
2021/06/07 04:21:40;;;;;;;2.15;0.80;;;13.50;75.10;;;;;;2089266;28;20013;-83
2021/06/07 04:22:42;;;;;;;2.22;1.00;;;13.50;75.00;;;;;;2080297;28;20052;-81
2021/06/07 04:23:43;;;;;;;0.90;0.70;;;13.60;75.00;;;;;;2083311;28;20030;-83
2021/06/07 04:24:45;;;;;;;2.65;0.93;;;13.60;74.90;;;;;;2077981;28;20030;-83
2021/06/07 04:25:46;;;;;;;1.67;0.77;;;13.60;74.80;;;;;;2077898;28;20104;-83
2021/06/07 04:26:47;;;;;;;2.13;0.90;;;13.60;74.80;;;;;;2083642;28;20030;-83
2021/06/07 04:27:49;;;;;;;1.95;1.00;;;13.60;74.80;;;;;;2079996;28;20599;-82
2021/06/07 04:28:50;;;;;;;1.48;0.70;;;13.60;74.80;;;;;;2077115;28;20069;-83
2021/06/07 04:29:50;;;;;;;1.50;0.80;;;13.70;74.80;;;;;;2077142;28;20499;-83
2021/06/07 04:30:51;;;;;;;1.40;1.00;;;13.60;74.70;;;;;;2071798;28;20091;-82
2021/06/07 04:31:51;;;;;;;2.60;1.10;;;13.70;74.70;;;;;;2060384;28;20042;-83
2021/06/07 04:32:54;;;;;;;1.98;1.00;;;13.70;74.70;;;;;;2075055;28;20042;-82
2021/06/07 04:33:55;;;;;;;1.10;0.85;;;13.60;74.70;;;;;;2080779;28;20046;-83
2021/06/07 04:34:55;;;;;;;1.67;0.80;;;13.60;74.70;;;;;;2077128;28;20034;-82
2021/06/07 04:35:56;;;;;;;1.77;0.90;;;13.60;74.80;;;;;;2071291;28;20085;-83
2021/06/07 04:36:57;;;;;;;2.30;1.00;;;13.60;74.90;;;;;;2068294;28;20053;-82
2021/06/07 04:37:58;;;;;;;1.60;0.80;;;13.60;74.90;;;;;;2088384;28;20037;-82
2021/06/07 04:38:58;;;;;;;1.77;0.90;;;13.60;74.90;;;;;;2090191;28;20034;-81
2021/06/07 04:39:59;;;;;;;1.63;1.00;;;13.60;74.90;;;;;;2085349;28;20045;-82
2021/06/07 04:40:59;;;;;;;1.95;0.90;;;13.60;74.90;;;;;;2080720;28;20021;-83
2021/06/07 04:42:00;;;;;;;0.98;0.70;;;13.70;74.90;;;;;;2080548;28;20053;-83
2021/06/07 04:43:06;;;;;;;1.92;0.90;;;13.70;74.90;;;;;;2092796;28;20053;-83
2021/06/07 04:44:06;;;;;;;1.90;0.95;;;13.70;74.90;;;;;;2085592;28;20021;-83
2021/06/07 04:45:09;;;;;;;2.55;1.20;;;13.70;74.90;;;;;;2072319;28;20504;-82
2021/06/07 04:46:10;;;;;;;2.05;0.90;;;13.70;74.90;;;;;;2072132;28;20018;-82
2021/06/07 04:47:11;;;;;;;1.98;1.00;;;13.70;74.90;;;;;;2078604;28;20550;-82
2021/06/07 04:48:13;;;;;;;1.27;0.98;;;13.80;74.80;;;;;;2065356;28;20026;-82
2021/06/07 04:49:13;;;;;;;1.58;0.80;;;13.80;74.70;;;;;;2065631;28;20511;-82
2021/06/07 04:50:16;;;;;;;1.65;0.90;;;13.80;74.70;;;;;;2070525;28;20093;-82
2021/06/07 04:51:17;;;;;;;1.50;0.80;;;13.90;74.60;;;;;;2079539;28;20021;-82
2021/06/07 04:52:18;;;;;;;2.00;0.73;;;13.90;74.50;;;;;;2072955;28;20476;-82
2021/06/07 04:53:19;;;;;;;1.80;0.90;;;13.90;74.40;;;;;;2077345;28;20017;-82
2021/06/07 04:54:19;;;;;;;2.13;1.00;;;13.90;74.40;;;;;;2078686;28;20132;-82
2021/06/07 04:55:20;;;;;;;2.38;0.80;;;13.90;74.30;;;;;;2077949;28;20027;-82
2021/06/07 04:56:21;;;;;;;1.05;0.85;;;13.90;74.30;;;;;;2078376;28;20059;-82
2021/06/07 04:57:21;;;;;;;1.45;0.70;;;13.90;74.20;;;;;;2070195;28;20029;-82
2021/06/07 04:58:27;;;;;;;2.25;0.90;;;14.00;74.40;;;;;;2063057;28;20113;-82
2021/06/07 04:59:27;;;;;;;1.60;1.00;;;14.00;74.40;;;;;;2081299;28;20132;-82
2021/06/07 05:00:28;;;;;;;2.85;0.90;;;14.00;74.30;;;;;;2078046;28;20037;-83
2021/06/07 05:01:29;;;;;;;1.73;0.90;;;14.00;74.20;;;;;;2074728;28;20038;-82
2021/06/07 05:02:30;;;;;;;1.40;0.88;;;14.00;74.10;;;;;;2075334;28;20060;-83
2021/06/07 05:03:31;;;;;;;1.80;0.90;;;14.10;74.10;;;;;;2081067;28;20033;-82
2021/06/07 05:04:31;;;;;;;1.50;0.80;;;14.10;74.00;;;;;;2072850;28;20033;-82
2021/06/07 05:05:33;;;;;;;2.80;0.70;;;14.10;73.80;;;;;;2062455;28;20460;-82
2021/06/07 05:06:33;;;;;;;1.52;0.98;;;14.20;73.80;;;;;;2070845;28;20121;-82
2021/06/07 05:07:34;;;;;;;2.67;0.90;;;14.20;73.60;;;;;;2083889;28;20038;-83
2021/06/07 05:08:35;;;;;;;2.58;0.90;;;14.30;73.50;;;;;;2073283;28;20060;-83
2021/06/07 05:09:35;;;;;;;2.08;0.85;;;14.40;73.40;;;;;;2061997;28;20041;-83
2021/06/07 05:10:36;;;;;;;1.35;0.82;;;14.40;73.10;;;;;;2072165;28;20507;-83
2021/06/07 05:11:40;;;;;;;0.93;0.70;;;14.50;72.90;;;;;;2072601;28;20033;-82
2021/06/07 05:12:41;;;;;;;1.42;0.77;;;14.60;72.80;;;;;;2080347;28;20025;-82
2021/06/07 05:13:42;;;;;;;1.45;0.80;;;14.70;72.50;;;;;;2077135;28;20061;-82
2021/06/07 05:14:44;;;;;;;1.10;0.63;;;14.70;72.30;;;;;;2078877;28;20063;-82
2021/06/07 05:15:44;;;;;;;1.00;0.60;;;14.80;72.20;;;;;;2077309;28;20113;-82
2021/06/07 05:16:45;;;;;;;1.48;0.70;;;14.90;71.90;;;;;;2077452;28;20415;-83
2021/06/07 05:17:46;;;;;;;1.33;0.70;;;15.00;71.70;;;;;;2064123;28;20048;-82
2021/06/07 05:18:46;;;;;;;1.10;0.65;;;15.10;71.50;;;;;;2064136;28;20030;-82
2021/06/07 05:19:48;;;;;;;1.08;0.60;;;15.20;71.30;;;;;;2072728;28;20046;-82
2021/06/07 05:20:49;;;;;;;1.25;0.60;;;15.20;71.10;;;;;;2075486;28;20064;-82